Time;durP1;ratioP1;P1;durP2;ratioP2;P2;SDS_P1;SDS_P2;PMS_P1;PMS_P2;Temp;Humidity;BMP_temperature;BMP_pressure;BME280_temperature;BME280_humidity;BME280_pressure;Samples;Min_cycle;Max_cycle;Signal;HPM_P1;HPM_P2
2023/11/29 00:02:46;;;;;;;9.93;4.75;;;;;;;1.04;69.41;99558.75;10322913;28;20038;-63
2023/11/29 00:07:47;;;;;;;9.73;4.13;;;;;;;0.90;70.33;99560.78;10328467;28;20044;-63
2023/11/29 00:12:48;;;;;;;8.27;4.28;;;;;;;0.85;69.55;99544.50;10326979;28;20046;-64
2023/11/29 00:17:50;;;;;;;12.90;5.25;;;;;;;0.78;69.56;99543.34;10344024;28;20047;-61
2023/11/29 00:22:51;;;;;;;10.13;4.43;;;;;;;0.77;70.10;99544.31;10339947;28;20081;-63
2023/11/29 00:27:53;;;;;;;11.55;4.38;;;;;;;0.73;70.26;99545.53;10346779;28;20054;-64
2023/11/29 00:32:55;;;;;;;11.85;4.50;;;;;;;0.64;69.82;99535.78;10345299;28;20065;-63
2023/11/29 00:37:57;;;;;;;9.63;3.97;;;;;;;0.52;69.88;99541.16;10352942;28;20050;-62
2023/11/29 00:42:58;;;;;;;11.35;4.75;;;;;;;0.49;70.20;99541.41;10355896;28;20047;-63
2023/11/29 00:48:08;;;;;;;12.63;5.70;;;;;;;0.49;70.66;99537.91;10349706;28;20046;-63
2023/11/29 00:53:10;;;;;;;11.25;5.30;;;;;;;0.53;71.28;99544.63;10341739;28;20046;-63
2023/11/29 00:58:11;;;;;;;11.63;5.32;;;;;;;0.49;70.30;99544.03;10348619;28;20457;-63
2023/11/29 01:03:12;;;;;;;16.60;5.57;;;;;;;0.40;71.54;99523.69;10343383;28;20492;-63
2023/11/29 01:08:14;;;;;;;14.18;5.25;;;;;;;0.36;70.90;99524.94;10351727;28;20113;-63
2023/11/29 01:13:16;;;;;;;15.52;6.18;;;;;;;0.33;72.06;99519.88;10350644;28;20047;-64
2023/11/29 01:18:17;;;;;;;12.73;4.97;;;;;;;0.32;72.05;99511.13;10347022;28;20052;-63
2023/11/29 01:23:19;;;;;;;16.63;5.38;;;;;;;0.30;72.02;99499.84;10358793;28;20070;-62
2023/11/29 01:28:21;;;;;;;10.63;5.07;;;;;;;0.32;71.51;99499.72;10334903;28;20050;-63
2023/11/29 01:33:23;;;;;;;11.82;5.18;;;;;;;0.30;72.10;99514.88;10328421;28;20042;-63
2023/11/29 01:38:24;;;;;;;11.57;4.80;;;;;;;0.30;71.90;99504.31;10330904;28;20057;-63
2023/11/29 01:43:26;;;;;;;13.63;5.57;;;;;;;0.27;71.57;99507.19;10333333;28;20053;-61
2023/11/29 01:48:28;;;;;;;12.25;5.15;;;;;;;0.25;71.97;99491.47;10328799;28;20137;-63
2023/11/29 01:53:31;;;;;;;12.68;4.90;;;;;;;0.26;71.41;99500.22;10322023;28;20051;-63
2023/11/29 01:58:32;;;;;;;16.80;5.50;;;;;;;0.24;71.65;99496.88;10329950;28;20050;-62
2023/11/29 02:03:34;;;;;;;16.95;5.82;;;;;;;0.17;72.25;99492.13;10332064;28;20047;-63
2023/11/29 02:08:36;;;;;;;13.90;5.25;;;;;;;0.16;71.74;99476.41;10325287;28;20112;-62
2023/11/29 02:13:37;;;;;;;9.55;4.63;;;;;;;0.17;72.17;99457.78;10325545;28;20066;-63
2023/11/29 02:18:38;;;;;;;11.90;5.90;;;;;;;0.27;71.66;99444.59;10327754;28;20050;-64
2023/11/29 02:23:52;;;;;;;14.15;5.88;;;;;;;0.50;72.04;99444.44;10325193;28;20057;-63
2023/11/29 02:28:53;;;;;;;12.48;5.18;;;;;;;0.67;72.02;99443.78;10331811;28;20046;-61
2023/11/29 02:33:55;;;;;;;10.02;4.85;;;;;;;0.69;71.70;99425.97;10324519;28;20869;-63
2023/11/29 02:38:56;;;;;;;12.65;5.07;;;;;;;0.70;71.83;99429.44;10365682;28;20045;-64
2023/11/29 02:43:58;;;;;;;14.02;5.80;;;;;;;0.79;71.73;99418.06;10364418;28;20132;-64
2023/11/29 02:49:00;;;;;;;12.48;5.57;;;;;;;0.77;72.38;99412.03;10361995;28;20050;-63
2023/11/29 02:54:02;;;;;;;11.82;6.05;;;;;;;0.78;72.18;99403.16;10368017;28;20057;-63
2023/11/29 02:59:03;;;;;;;14.07;5.70;;;;;;;0.77;72.31;99401.47;10361001;28;20042;-63
2023/11/29 03:04:04;;;;;;;11.20;5.20;;;;;;;0.73;72.21;99393.00;10364375;28;20110;-64
2023/11/29 03:09:07;;;;;;;13.13;5.20;;;;;;;0.75;71.72;99390.19;10360377;28;21621;-64
2023/11/29 03:14:08;;;;;;;9.75;4.90;;;;;;;0.70;72.18;99372.09;10363257;28;20046;-64
2023/11/29 03:19:09;;;;;;;9.00;4.63;;;;;;;0.75;72.26;99361.09;10371124;28;20096;-63
2023/11/29 03:24:11;;;;;;;10.02;4.07;;;;;;;0.77;72.18;99353.84;10366892;28;20050;-63
2023/11/29 03:29:12;;;;;;;10.13;5.22;;;;;;;0.75;72.11;99354.03;10358995;28;20038;-63
2023/11/29 03:34:14;;;;;;;7.88;4.43;;;;;;;0.81;72.14;99357.94;10359834;28;20061;-63
2023/11/29 03:39:16;;;;;;;10.43;4.88;;;;;;;0.84;72.43;99359.44;10354344;28;20055;-64
2023/11/29 03:44:17;;;;;;;9.48;4.18;;;;;;;0.81;72.13;99352.63;10332190;28;20114;-67
2023/11/29 03:49:19;;;;;;;10.65;4.93;;;;;;;0.69;71.84;99337.84;10325778;28;20109;-67
2023/11/29 03:54:20;;;;;;;9.75;4.20;;;;;;;0.58;72.72;99341.47;10320794;28;20169;-67
2023/11/29 03:59:22;;;;;;;10.32;4.22;;;;;;;0.52;72.85;99334.91;10321519;28;20069;-67
2023/11/29 04:04:23;;;;;;;8.88;4.80;;;;;;;0.52;71.62;99324.34;10315389;28;20622;-67
2023/11/29 04:09:25;;;;;;;10.70;4.88;;;;;;;0.47;71.70;99312.50;10297645;28;20042;-67
2023/11/29 04:14:26;;;;;;;12.70;5.15;;;;;;;0.41;72.34;99308.59;10321693;28;20409;-67
2023/11/29 04:19:28;;;;;;;10.43;5.30;;;;;;;0.45;72.00;99315.28;10318740;28;20050;-66
2023/11/29 04:24:29;;;;;;;10.95;4.20;;;;;;;0.39;72.56;99329.03;10324300;28;20046;-67
2023/11/29 04:29:30;;;;;;;13.80;5.43;;;;;;;0.41;71.89;99316.53;10321157;28;20058;-65
2023/11/29 04:34:32;;;;;;;11.23;4.75;;;;;;;0.44;72.61;99316.25;10331556;28;20043;-67
2023/11/29 04:39:44;;;;;;;11.57;5.20;;;;;;;0.45;72.22;99314.44;10318453;28;20649;-68
2023/11/29 04:44:45;;;;;;;13.77;5.47;;;;;;;0.46;72.32;99308.19;10313983;28;20101;-68
2023/11/29 04:49:46;;;;;;;16.20;5.68;;;;;;;0.57;72.00;99297.47;10303516;28;20038;-68
2023/11/29 04:54:48;;;;;;;11.02;5.15;;;;;;;0.57;72.38;99287.75;10351084;28;20042;-65
2023/11/29 04:59:49;;;;;;;12.88;5.78;;;;;;;0.61;72.16;99271.59;10372200;28;20133;-65
2023/11/29 05:04:51;;;;;;;15.00;5.25;;;;;;;0.66;72.30;99280.78;10370062;28;20051;-64
2023/11/29 05:09:53;;;;;;;13.07;5.47;;;;;;;0.67;71.99;99282.47;10375311;28;20048;-64
2023/11/29 05:14:54;;;;;;;12.93;5.57;;;;;;;0.64;71.64;99280.09;10358308;28;20073;-64
2023/11/29 05:19:55;;;;;;;15.65;5.50;;;;;;;0.79;72.20;99288.47;10362299;28;20325;-64
2023/11/29 05:24:57;;;;;;;15.65;5.93;;;;;;;0.89;71.98;99273.41;10355647;28;20439;-64
2023/11/29 05:29:59;;;;;;;15.57;6.47;;;;;;;0.93;71.85;99266.88;10360390;28;20110;-64
2023/11/29 05:35:00;;;;;;;14.88;6.20;;;;;;;1.00;71.77;99275.06;10362757;28;20113;-64
2023/11/29 05:40:02;;;;;;;13.48;6.00;;;;;;;1.12;72.10;99268.63;10360711;28;20073;-64
2023/11/29 05:45:06;;;;;;;14.80;6.60;;;;;;;1.19;71.59;99259.16;10355872;28;20042;-63
2023/11/29 05:50:07;;;;;;;18.80;5.88;;;;;;;1.23;72.17;99254.41;10355401;28;20050;-64
2023/11/29 05:55:09;;;;;;;15.88;5.22;;;;;;;1.25;72.42;99262.22;10358108;28;20054;-64
2023/11/29 06:00:11;;;;;;;17.67;6.47;;;;;;;1.33;72.42;99257.03;10362914;28;20061;-65
2023/11/29 06:05:31;;;;;;;17.00;7.43;;;;;;;1.37;72.42;99253.94;10330643;28;20357;-63
2023/11/29 06:10:32;;;;;;;12.57;5.90;;;;;;;1.52;72.02;99258.75;10320583;28;20046;-65
2023/11/29 06:15:34;;;;;;;13.27;5.32;;;;;;;1.57;72.54;99254.69;10326496;28;20053;-62
2023/11/29 06:20:38;;;;;;;17.92;7.18;;;;;;;1.73;72.25;99250.59;10314475;28;20698;-64
2023/11/29 06:25:39;;;;;;;13.35;5.65;;;;;;;1.71;72.06;99245.44;10325425;28;20043;-63
2023/11/29 06:30:41;;;;;;;16.17;5.78;;;;;;;1.74;71.59;99253.13;10327883;28;20046;-65
2023/11/29 06:35:42;;;;;;;18.23;6.90;;;;;;;1.65;72.47;99246.03;10329840;28;20409;-63
2023/11/29 06:40:44;;;;;;;12.43;6.55;;;;;;;1.65;72.10;99232.78;10322257;28;20497;-63
2023/11/29 06:45:54;;;;;;;14.88;4.90;;;;;;;1.74;72.43;99237.22;10322735;28;20042;-63
2023/11/29 06:50:55;;;;;;;14.80;5.95;;;;;;;1.73;72.17;99243.47;10329309;28;20046;-63
2023/11/29 06:55:57;;;;;;;17.02;6.35;;;;;;;1.82;72.25;99232.97;10322395;28;20073;-63
2023/11/29 07:00:58;;;;;;;19.42;6.35;;;;;;;1.89;71.87;99231.41;10339433;28;20045;-64
2023/11/29 07:06:00;;;;;;;15.30;5.90;;;;;;;1.87;71.61;99228.09;10342386;28;20045;-64
2023/11/29 07:11:04;;;;;;;14.50;6.22;;;;;;;1.90;71.77;99220.69;10345289;28;20050;-64
2023/11/29 07:16:07;;;;;;;15.00;5.97;;;;;;;1.98;72.07;99223.41;10324844;28;20042;-69
2023/11/29 07:21:08;;;;;;;19.08;7.20;;;;;;;2.09;71.50;99222.34;10312346;28;20038;-68
2023/11/29 07:26:10;;;;;;;15.32;6.40;;;;;;;2.10;71.99;99216.09;10314347;28;20046;-68
2023/11/29 07:31:11;;;;;;;12.88;5.82;;;;;;;2.23;71.29;99198.97;10316538;28;20121;-68
2023/11/29 07:36:13;;;;;;;14.57;6.88;;;;;;;2.24;71.88;99209.44;10315194;28;20046;-69
2023/11/29 07:41:20;;;;;;;16.75;6.03;;;;;;;2.36;71.74;99221.47;10326423;28;20382;-67
2023/11/29 07:46:21;;;;;;;13.52;5.55;;;;;;;2.44;71.37;99217.25;10328705;28;20060;-69
2023/11/29 07:51:24;;;;;;;14.10;5.80;;;;;;;2.43;71.58;99226.16;10319911;28;20397;-68
2023/11/29 07:56:26;;;;;;;14.38;5.55;;;;;;;2.48;71.58;99215.94;10319618;28;20561;-67
2023/11/29 08:01:28;;;;;;;18.27;6.90;;;;;;;2.52;71.47;99202.22;10311601;28;20137;-68
2023/11/29 08:06:29;;;;;;;15.27;6.72;;;;;;;2.63;71.60;99200.34;10322278;28;20050;-69
2023/11/29 08:11:33;;;;;;;12.07;5.43;;;;;;;2.65;71.86;99201.84;10318914;28;20058;-69
2023/11/29 08:16:35;;;;;;;16.85;5.78;;;;;;;2.74;71.22;99200.91;10307872;28;20054;-68
2023/11/29 08:21:36;;;;;;;16.52;6.80;;;;;;;2.84;71.50;99197.34;10322828;28;20050;-69
2023/11/29 08:26:38;;;;;;;14.23;6.45;;;;;;;2.86;71.45;99205.97;10324476;28;20043;-69
2023/11/29 08:31:39;;;;;;;14.52;5.88;;;;;;;3.00;70.92;99204.56;10313170;28;20125;-70
2023/11/29 08:36:41;;;;;;;15.40;6.63;;;;;;;3.13;71.00;99197.03;10323131;28;20393;-65
2023/11/29 08:41:43;;;;;;;15.95;6.60;;;;;;;3.34;70.68;99188.69;10293528;28;20143;-69
2023/11/29 08:46:45;;;;;;;16.65;6.63;;;;;;;3.53;70.29;99176.97;10320639;28;20347;-69
2023/11/29 08:51:47;;;;;;;14.27;6.53;;;;;;;3.64;70.40;99183.84;10302469;28;20042;-68
2023/11/29 08:56:48;;;;;;;17.30;6.72;;;;;;;3.81;70.69;99180.25;10329141;28;20046;-69
2023/11/29 09:01:52;;;;;;;13.98;6.75;;;;;;;3.93;70.84;99168.31;10323697;28;20053;-66
2023/11/29 09:06:53;;;;;;;17.40;6.95;;;;;;;3.98;70.73;99160.66;10322473;28;20181;-68
2023/11/29 09:11:55;;;;;;;15.25;7.00;;;;;;;4.12;70.97;99158.38;10313733;28;20054;-69
2023/11/29 09:16:56;;;;;;;18.02;7.60;;;;;;;4.11;70.70;99160.22;10317989;28;20144;-69
2023/11/29 09:21:59;;;;;;;15.82;7.90;;;;;;;4.18;70.70;99163.84;10319671;28;20096;-69
2023/11/29 09:27:01;;;;;;;17.88;7.25;;;;;;;4.28;70.80;99163.69;10320065;28;20053;-69
2023/11/29 09:32:04;;;;;;;14.43;6.72;;;;;;;4.33;70.42;99144.59;10327367;28;20054;-68
2023/11/29 09:37:05;;;;;;;15.90;7.88;;;;;;;4.20;70.74;99157.56;10307128;28;20047;-69
2023/11/29 09:42:08;;;;;;;18.77;8.68;;;;;;;4.25;70.99;99150.75;10319919;28;20490;-69
2023/11/29 09:47:10;;;;;;;18.65;8.52;;;;;;;4.31;70.86;99150.09;10326785;28;20065;-68
2023/11/29 09:52:14;;;;;;;12.35;5.68;;;;;;;4.23;71.08;99155.41;10328344;28;20615;-66
2023/11/29 09:57:16;;;;;;;15.93;7.40;;;;;;;4.14;71.53;99148.41;10322793;28;20051;-68
2023/11/29 10:02:21;;;;;;;19.77;7.20;;;;;;;3.87;71.84;99142.38;10325237;28;20085;-69
2023/11/29 10:07:22;;;;;;;19.00;7.40;;;;;;;3.74;71.82;99142.84;10328610;28;20048;-66
2023/11/29 10:12:24;;;;;;;13.82;6.60;;;;;;;3.76;72.15;99138.19;10318881;28;20412;-65
2023/11/29 10:17:26;;;;;;;16.95;7.55;;;;;;;3.74;72.36;99142.03;10316970;28;20046;-66
2023/11/29 10:22:29;;;;;;;14.55;7.40;;;;;;;3.76;72.30;99135.53;10325653;28;20049;-66
2023/11/29 10:27:32;;;;;;;12.02;5.40;;;;;;;3.72;72.35;99128.06;10332875;28;20081;-67
2023/11/29 10:32:33;;;;;;;17.25;7.57;;;;;;;3.79;72.70;99110.44;10324321;28;20484;-67
2023/11/29 10:37:35;;;;;;;15.60;7.45;;;;;;;3.95;71.99;99112.34;10321410;28;20038;-66
2023/11/29 10:42:39;;;;;;;15.77;6.60;;;;;;;4.03;72.34;99115.00;10319618;28;20045;-68
2023/11/29 10:47:47;;;;;;;12.98;5.65;;;;;;;4.21;71.87;99106.88;10315252;28;20050;-66
2023/11/29 10:52:49;;;;;;;12.45;5.57;;;;;;;4.40;71.71;99115.50;10320829;28;20133;-68
2023/11/29 10:58:02;;;;;;;14.10;6.00;;;;;;;4.39;72.13;99114.69;10323315;28;20046;-68
2023/11/29 11:03:08;;;;;;;12.77;6.63;;;;;;;4.39;72.43;99122.66;10323901;28;20057;-66
2023/11/29 11:08:10;;;;;;;12.05;5.93;;;;;;;4.56;71.88;99113.66;10330146;28;20037;-69
2023/11/29 11:13:36;;;;;;;12.00;5.82;;;;;;;4.59;72.12;99099.19;10324886;28;20134;-67
2023/11/29 11:18:42;;;;;;;16.25;6.75;;;;;;;4.92;71.68;99093.81;10321994;28;20073;-69
2023/11/29 11:23:44;;;;;;;11.50;5.40;;;;;;;5.40;71.24;99085.81;10319370;28;20047;-66
2023/11/29 11:28:46;;;;;;;15.15;5.53;;;;;;;5.48;70.60;99075.91;10313776;28;20130;-69
2023/11/29 11:33:51;;;;;;;13.18;6.10;;;;;;;5.38;71.29;99083.31;10318239;28;20043;-69
2023/11/29 11:38:52;;;;;;;11.88;5.15;;;;;;;5.15;70.80;99085.88;10322059;28;20505;-68
2023/11/29 11:43:55;;;;;;;11.75;6.47;;;;;;;4.99;71.84;99085.97;10320280;28;20618;-69
2023/11/29 11:48:56;;;;;;;10.60;5.30;;;;;;;4.93;71.20;99082.16;10323191;28;20548;-68
2023/11/29 11:53:59;;;;;;;12.75;6.15;;;;;;;4.94;71.28;99081.97;10322502;28;20046;-63
2023/11/29 11:59:00;;;;;;;11.48;5.70;;;;;;;5.01;71.07;99070.63;10346563;28;20483;-63
2023/11/29 12:04:03;;;;;;;9.52;5.28;;;;;;;5.23;70.72;99069.88;10338489;28;20153;-64
2023/11/29 12:09:06;;;;;;;13.60;5.78;;;;;;;5.29;70.90;99066.53;10345706;28;20065;-63
2023/11/29 12:14:09;;;;;;;12.30;5.70;;;;;;;5.34;70.97;99064.16;10342986;28;20046;-62
2023/11/29 12:19:12;;;;;;;11.25;5.20;;;;;;;5.25;70.99;99070.56;10363575;28;20074;-63
2023/11/29 12:24:13;;;;;;;14.02;5.10;;;;;;;5.21;71.21;99071.06;10359409;28;20043;-63
2023/11/29 12:29:14;;;;;;;13.23;5.07;;;;;;;5.19;70.89;99068.56;10368424;28;20092;-63
2023/11/29 12:34:16;;;;;;;14.82;6.45;;;;;;;5.20;70.70;99072.91;10357386;28;20042;-63
2023/11/29 12:39:17;;;;;;;15.25;6.90;;;;;;;5.25;70.94;99064.38;10363275;28;20060;-63
2023/11/29 12:44:19;;;;;;;14.32;7.35;;;;;;;5.51;70.71;99058.75;10339828;28;20050;-63
2023/11/29 12:49:21;;;;;;;12.77;6.78;;;;;;;5.64;70.95;99053.66;10345831;28;20049;-61
2023/11/29 12:54:22;;;;;;;11.27;6.10;;;;;;;5.76;70.91;99062.91;10340325;28;20070;-63
2023/11/29 12:59:25;;;;;;;11.45;5.47;;;;;;;5.94;70.74;99048.47;10340778;28;20078;-63
2023/11/29 13:04:26;;;;;;;10.65;5.95;;;;;;;6.01;70.72;99048.63;10340173;28;20042;-63
2023/11/29 13:09:28;;;;;;;9.63;4.93;;;;;;;6.10;70.19;99051.06;10345201;28;20050;-62
2023/11/29 13:14:29;;;;;;;8.38;4.43;;;;;;;6.13;70.24;99056.00;10347933;28;20052;-63
2023/11/29 13:19:31;;;;;;;9.50;4.68;;;;;;;6.21;70.84;99052.44;10348341;28;20158;-63
2023/11/29 13:24:32;;;;;;;7.53;3.72;;;;;;;6.37;70.44;99037.31;10349379;28;20380;-62
2023/11/29 13:29:34;;;;;;;9.07;4.28;;;;;;;6.43;70.29;99044.59;10354274;28;20074;-61
2023/11/29 13:34:36;;;;;;;10.90;4.00;;;;;;;6.35;70.38;99045.50;10342507;28;20514;-62
2023/11/29 13:39:37;;;;;;;7.78;3.90;;;;;;;6.27;70.78;99054.41;10338023;28;20038;-64
2023/11/29 13:44:39;;;;;;;7.47;3.65;;;;;;;6.35;69.30;99059.66;10341860;28;20059;-62
2023/11/29 13:49:40;;;;;;;9.30;4.57;;;;;;;6.35;69.27;99059.66;10340649;28;20045;-64
2023/11/29 13:54:42;;;;;;;11.25;4.88;;;;;;;6.28;69.66;99061.41;10345200;28;20046;-62
2023/11/29 13:59:43;;;;;;;6.18;3.13;;;;;;;6.08;69.63;99061.06;10344238;28;20402;-60
2023/11/29 14:04:45;;;;;;;8.15;3.67;;;;;;;6.10;69.70;99056.38;10326849;28;20446;-61
2023/11/29 14:09:47;;;;;;;9.02;4.00;;;;;;;6.12;70.25;99056.19;10329243;28;20040;-61
2023/11/29 14:14:48;;;;;;;11.40;4.45;;;;;;;6.10;70.13;99056.38;10333429;28;20482;-65
2023/11/29 14:19:50;;;;;;;10.05;4.15;;;;;;;6.06;69.41;99056.91;10323111;28;20061;-69
2023/11/29 14:24:52;;;;;;;8.43;4.53;;;;;;;5.99;69.81;99053.31;10326200;28;20042;-69
2023/11/29 14:29:53;;;;;;;6.93;3.95;;;;;;;5.95;69.81;99061.66;10320355;28;20531;-68
2023/11/29 14:34:54;;;;;;;12.55;5.13;;;;;;;5.86;70.14;99060.00;10315106;28;20572;-69
2023/11/29 14:39:56;;;;;;;6.97;4.13;;;;;;;5.80;69.38;99058.06;10320174;28;20170;-65
2023/11/29 14:44:58;;;;;;;6.75;3.80;;;;;;;5.87;69.68;99068.88;10327153;28;20501;-68
2023/11/29 14:49:59;;;;;;;7.68;4.57;;;;;;;5.76;69.88;99065.59;10313355;28;20137;-67
2023/11/29 14:55:01;;;;;;;8.88;4.15;;;;;;;5.70;69.83;99068.13;10325284;28;20377;-67
2023/11/29 15:00:04;;;;;;;7.15;3.90;;;;;;;5.63;69.87;99070.69;10327230;28;20054;-68
2023/11/29 15:05:06;;;;;;;6.60;3.25;;;;;;;5.57;70.21;99074.88;10322006;28;20121;-66
2023/11/29 15:10:08;;;;;;;7.25;3.70;;;;;;;5.46;69.78;99077.09;10320386;28;20060;-69
2023/11/29 15:15:09;;;;;;;7.40;3.85;;;;;;;5.38;70.23;99079.81;10319555;28;20051;-69
2023/11/29 15:20:11;;;;;;;10.43;4.90;;;;;;;5.24;70.09;99073.38;10315324;28;20121;-66
2023/11/29 15:25:12;;;;;;;8.05;3.88;;;;;;;5.13;70.08;99093.22;10349611;28;20053;-63
2023/11/29 15:30:20;;;;;;;7.93;3.83;;;;;;;5.00;70.12;99079.66;10374517;28;20034;-63
2023/11/29 15:35:21;;;;;;;7.25;3.97;;;;;;;4.92;70.39;99088.47;10366250;28;20034;-63
2023/11/29 15:40:23;;;;;;;7.38;4.10;;;;;;;4.90;70.03;99090.50;10375197;28;20050;-63
2023/11/29 15:45:24;;;;;;;6.15;3.33;;;;;;;4.80;70.66;99101.31;10374865;28;20034;-63
2023/11/29 15:50:26;;;;;;;7.78;3.88;;;;;;;4.69;70.67;99107.00;10370370;28;20125;-63
2023/11/29 15:55:28;;;;;;;6.93;3.65;;;;;;;4.64;70.79;99114.66;10375343;28;20083;-63
2023/11/29 16:00:29;;;;;;;11.50;3.97;;;;;;;4.69;70.89;99115.81;10377085;28;20030;-63
2023/11/29 16:05:30;;;;;;;9.85;2.75;;;;;;;4.76;70.27;99103.50;10365456;28;20457;-58
2023/11/29 16:10:33;;;;;;;9.45;4.00;;;;;;;4.70;70.98;99093.53;10320849;28;20073;-58
2023/11/29 16:15:34;;;;;;;10.50;3.67;;;;;;;4.59;71.40;99099.19;10319344;28;20038;-72
2023/11/29 16:20:36;;;;;;;8.02;3.53;;;;;;;4.55;71.28;99101.34;10318542;28;20161;-59
2023/11/29 16:25:38;;;;;;;7.93;3.70;;;;;;;4.51;71.10;99117.84;10322460;28;20578;-59
2023/11/29 16:30:39;;;;;;;7.78;4.22;;;;;;;4.42;71.54;99124.16;10317989;28;20049;-59
2023/11/29 16:35:41;;;;;;;7.25;3.88;;;;;;;4.42;71.57;99122.31;10314347;28;20046;-59
2023/11/29 16:40:43;;;;;;;9.18;3.65;;;;;;;4.37;71.26;99122.81;10325018;28;20056;-59
2023/11/29 16:45:45;;;;;;;7.00;3.88;;;;;;;4.43;71.10;99128.47;10322176;28;20519;-59
2023/11/29 16:50:46;;;;;;;10.90;4.65;;;;;;;4.42;71.27;99124.97;10317732;28;20050;-58
2023/11/29 16:55:48;;;;;;;9.73;4.05;;;;;;;4.38;71.25;99123.63;10328558;28;20043;-58
2023/11/29 17:00:49;;;;;;;6.30;3.90;;;;;;;4.29;71.41;99129.97;10324659;28;20047;-58
2023/11/29 17:05:50;;;;;;;11.50;5.00;;;;;;;4.21;71.49;99130.81;10329172;28;20115;-59
2023/11/29 17:10:52;;;;;;;10.13;4.50;;;;;;;4.18;71.66;99134.59;10333463;28;20044;-59
2023/11/29 17:15:54;;;;;;;10.65;4.60;;;;;;;4.17;70.80;99137.44;10319787;28;20379;-60
2023/11/29 17:20:55;;;;;;;11.55;4.30;;;;;;;4.13;71.25;99136.94;10333210;28;20050;-62
2023/11/29 17:25:56;;;;;;;9.77;4.72;;;;;;;4.08;70.87;99149.06;10320239;28;20452;-60
2023/11/29 17:30:58;;;;;;;15.45;4.80;;;;;;;4.08;70.92;99147.22;10327202;28;20433;-59
2023/11/29 17:35:59;;;;;;;11.23;4.82;;;;;;;4.13;70.84;99138.78;10324382;28;20058;-60
2023/11/29 17:41:01;;;;;;;12.50;4.95;;;;;;;4.16;71.19;99143.75;10328824;28;20054;-60
2023/11/29 17:46:02;;;;;;;12.57;5.97;;;;;;;4.15;70.38;99153.56;10328114;28;20038;-61
2023/11/29 17:51:04;;;;;;;12.07;5.80;;;;;;;4.12;70.62;99145.91;10320431;28;20054;-60
2023/11/29 17:56:05;;;;;;;9.63;5.35;;;;;;;4.04;70.80;99145.91;10310138;28;20137;-61
2023/11/29 18:01:07;;;;;;;14.55;5.93;;;;;;;4.01;70.47;99143.59;10314373;28;20047;-61
2023/11/29 18:06:09;;;;;;;10.50;5.72;;;;;;;4.00;70.32;99151.72;10325222;28;20085;-61
2023/11/29 18:11:10;;;;;;;13.68;6.47;;;;;;;3.92;70.25;99145.38;10333118;28;20055;-61
2023/11/29 18:16:13;;;;;;;16.10;7.28;;;;;;;3.81;70.60;99159.00;10337055;28;20042;-61
2023/11/29 18:21:14;;;;;;;14.07;6.60;;;;;;;3.64;70.65;99151.97;10335106;28;20065;-61
2023/11/29 18:26:16;;;;;;;16.77;6.80;;;;;;;3.56;71.35;99152.75;10330481;28;20049;-61
2023/11/29 18:31:18;;;;;;;10.05;4.95;;;;;;;3.52;71.62;99157.56;10327398;28;20049;-61
2023/11/29 18:36:19;;;;;;;15.70;6.13;;;;;;;3.46;71.81;99155.53;10311064;28;20066;-61
2023/11/29 18:41:21;;;;;;;13.07;6.13;;;;;;;3.46;72.30;99152.06;10324136;28;20050;-61
2023/11/29 18:46:22;;;;;;;12.48;4.93;;;;;;;3.55;72.28;99157.25;10324949;28;20054;-61
2023/11/29 18:51:25;;;;;;;9.05;5.00;;;;;;;3.56;71.99;99153.59;10325945;28;20057;-61
2023/11/29 18:56:26;;;;;;;10.32;6.47;;;;;;;3.66;71.91;99158.75;10323891;28;20049;-61
2023/11/29 19:01:27;;;;;;;11.95;6.03;;;;;;;3.69;72.07;99163.78;10345006;28;20385;-61
2023/11/29 19:06:29;;;;;;;12.40;6.43;;;;;;;3.75;71.85;99160.47;10309697;28;20492;-62
2023/11/29 19:11:31;;;;;;;13.23;5.38;;;;;;;3.77;71.81;99161.13;10329469;28;20057;-62
2023/11/29 19:16:33;;;;;;;17.10;7.07;;;;;;;3.79;71.39;99158.28;10308816;28;20121;-62
2023/11/29 19:21:34;;;;;;;14.82;6.00;;;;;;;3.74;71.16;99157.97;10329674;28;20073;-61
2023/11/29 19:26:36;;;;;;;12.00;6.93;;;;;;;3.71;71.51;99160.94;10323739;28;20052;-61
2023/11/29 19:31:37;;;;;;;13.68;6.18;;;;;;;3.71;71.19;99168.91;10324900;28;20062;-62
2023/11/29 19:36:39;;;;;;;14.65;6.75;;;;;;;3.68;70.79;99167.41;10326183;28;20045;-61
2023/11/29 19:41:40;;;;;;;15.90;7.07;;;;;;;3.66;70.76;99161.44;10321486;28;20488;-62
2023/11/29 19:46:42;;;;;;;17.33;7.13;;;;;;;3.55;70.80;99169.69;10318896;28;20074;-63
2023/11/29 19:51:44;;;;;;;15.80;8.35;;;;;;;3.52;71.31;99162.88;10310990;28;20054;-62
2023/11/29 19:56:45;;;;;;;15.82;6.60;;;;;;;3.48;71.23;99160.69;10331228;28;20497;-62
2023/11/29 20:01:47;;;;;;;16.73;9.23;;;;;;;3.45;71.41;99164.50;10332773;28;20054;-63
2023/11/29 20:06:48;;;;;;;16.35;7.75;;;;;;;3.46;71.32;99165.34;10321604;28;20397;-60
2023/11/29 20:11:49;;;;;;;20.65;7.93;;;;;;;3.55;71.36;99149.28;10321692;28;20041;-60
2023/11/29 20:16:52;;;;;;;17.40;8.18;;;;;;;3.56;71.45;99150.94;10335234;28;20045;-60
2023/11/29 20:21:53;;;;;;;14.55;6.90;;;;;;;3.64;71.63;99144.81;10330185;28;20042;-61
2023/11/29 20:26:55;;;;;;;16.08;7.90;;;;;;;3.72;71.31;99162.59;10331620;28;20042;-60
2023/11/29 20:31:56;;;;;;;16.05;7.15;;;;;;;3.75;71.52;99157.81;10322175;28;20046;-60
2023/11/29 20:36:59;;;;;;;17.38;7.25;;;;;;;3.82;71.31;99150.00;10327183;28;20047;-61
2023/11/29 20:42:01;;;;;;;16.58;6.80;;;;;;;3.88;71.50;99148.53;10324655;28;20046;-60
2023/11/29 20:47:03;;;;;;;16.55;7.68;;;;;;;3.91;71.25;99140.22;10328452;28;20054;-60
2023/11/29 20:52:05;;;;;;;19.65;9.20;;;;;;;3.92;71.73;99136.56;10329348;28;20405;-61
2023/11/29 20:57:07;;;;;;;14.43;7.53;;;;;;;3.93;71.57;99139.06;10328537;28;20042;-60
2023/11/29 21:02:10;;;;;;;17.55;7.97;;;;;;;3.97;71.29;99144.91;10323270;28;20054;-62
2023/11/29 21:07:12;;;;;;;15.98;7.85;;;;;;;3.98;71.36;99136.75;10325058;28;20049;-60
2023/11/29 21:12:14;;;;;;;17.23;7.78;;;;;;;3.93;71.30;99135.56;10321589;28;20153;-60
2023/11/29 21:17:17;;;;;;;18.35;8.18;;;;;;;3.90;71.51;99125.28;10315559;28;20382;-61
2023/11/29 21:22:18;;;;;;;16.35;8.13;;;;;;;3.87;71.57;99120.28;10325420;28;20058;-60
2023/11/29 21:27:19;;;;;;;14.02;6.72;;;;;;;3.87;71.59;99123.78;10328758;28;20049;-61
2023/11/29 21:32:21;;;;;;;17.08;7.30;;;;;;;3.81;72.10;99116.47;10321830;28;20042;-61
2023/11/29 21:37:22;;;;;;;13.50;6.47;;;;;;;3.76;72.38;99101.00;10322462;28;20044;-61
2023/11/29 21:42:24;;;;;;;18.17;7.32;;;;;;;3.77;72.50;99096.50;10324608;28;20042;-59
2023/11/29 21:47:25;;;;;;;17.70;8.13;;;;;;;3.81;72.67;99091.69;10333806;28;20085;-61
2023/11/29 21:52:27;;;;;;;15.43;7.75;;;;;;;3.86;72.47;99094.69;10331279;28;20180;-60
2023/11/29 21:57:28;;;;;;;17.77;6.82;;;;;;;3.95;72.52;99096.38;10324867;28;20046;-59
2023/11/29 22:02:30;;;;;;;15.60;7.57;;;;;;;4.08;72.31;99093.22;10326312;28;20050;-60
2023/11/29 22:07:31;;;;;;;16.98;7.80;;;;;;;4.14;71.77;99096.03;10325858;28;20046;-59
2023/11/29 22:12:33;;;;;;;18.83;8.43;;;;;;;4.10;71.96;99109.84;10323250;28;20149;-60
2023/11/29 22:17:34;;;;;;;18.42;9.98;;;;;;;4.06;71.87;99103.19;10328912;28;20042;-60
2023/11/29 22:22:36;;;;;;;18.40;7.72;;;;;;;4.06;72.15;99101.34;10323483;28;20448;-60
2023/11/29 22:27:37;;;;;;;18.98;7.70;;;;;;;3.98;72.13;99106.66;10327485;28;20046;-59
2023/11/29 22:32:41;;;;;;;17.58;8.05;;;;;;;3.87;72.54;99114.94;10335622;28;20056;-61
2023/11/29 22:37:42;;;;;;;19.20;7.80;;;;;;;3.87;72.59;99101.66;10330526;28;20360;-61
2023/11/29 22:42:44;;;;;;;18.13;7.47;;;;;;;3.85;72.63;99108.97;10328476;28;20046;-61
2023/11/29 22:47:45;;;;;;;15.77;7.68;;;;;;;3.89;73.13;99102.34;10324375;28;20066;-62
2023/11/29 22:52:47;;;;;;;17.10;7.30;;;;;;;3.97;72.91;99105.84;10334526;28;20160;-62
2023/11/29 22:57:48;;;;;;;20.30;9.00;;;;;;;3.93;72.86;99107.19;10338704;28;20382;-61
2023/11/29 23:02:50;;;;;;;18.02;8.27;;;;;;;3.97;72.95;99107.69;10331839;28;20076;-61
2023/11/29 23:07:51;;;;;;;20.67;9.13;;;;;;;4.08;72.79;99106.53;10331330;28;20053;-63
2023/11/29 23:12:53;;;;;;;21.55;9.60;;;;;;;4.12;72.61;99105.19;10341591;28;20051;-60
2023/11/29 23:17:54;;;;;;;19.33;9.25;;;;;;;4.15;72.66;99111.00;10322195;28;20042;-62
2023/11/29 23:22:55;;;;;;;18.48;9.55;;;;;;;4.18;72.93;99118.66;10326896;28;20100;-61
2023/11/29 23:27:57;;;;;;;21.83;9.95;;;;;;;4.25;72.50;99112.69;10322992;28;20055;-61